| Date | Time | Temp. (oF) | Dew Point (oF) | Rel. Hum. (%) | Press. (in.) | Wind Dir. | Wind Speed (mph) | Hourly Rainfall (in.) |
|
|---|---|---|---|---|---|---|---|---|---|
| 1 | 02/20 | 00:00 | 24 | 8 | 51 | 30.04 | NNW | 2 | 0.00 |
| 2 | 02/19 | 23:00 | 26 | 8 | 48 | 30.04 | NW | 7 | 0.00 |
| 3 | 02/19 | 22:00 | 27 | 9 | 47 | 30.03 | NNW | 7 | 0.00 |
| 4 | 02/19 | 21:00 | 28 | 8 | 44 | 30.03 | W | 7 | 0.00 |
| 5 | 02/19 | 20:00 | 29 | 7 | 40 | 30.00 | WNW | 8 | 0.00 |
| 6 | 02/19 | 19:00 | 31 | 9 | 40 | 29.97 | WSW | 6 | 0.00 |
| 7 | 02/19 | 18:00 | 34 | 10 | 38 | 29.91 | NW | 18 | 0.00 |
| 8 | 02/19 | 17:00 | 37 | 13 | 38 | 29.85 | WNW | 16 | 0.00 |
| 9 | 02/19 | 16:00 | 41 | 15 | 35 | 29.79 | SW | 12 | 0.00 |
| 10 | 02/19 | 15:00 | 40 | 16 | 39 | 29.79 | SW | 10 | 0.00 |
| 11 | 02/19 | 14:00 | 39 | 18 | 44 | 29.80 | WSW | 10 | 0.00 |
| 12 | 02/19 | 13:00 | 39 | 19 | 46 | 29.83 | WNW | 13 | 0.00 |
| 13 | 02/19 | 12:00 | 38 | 20 | 49 | 29.85 | W | 11 | 0.00 |
| 14 | 02/19 | 11:00 | 38 | 19 | 47 | 29.86 | WSW | 9 | 0.00 |
| 15 | 02/19 | 10:00 | 38 | 17 | 44 | 29.87 | WSW | 10 | 0.00 |
| 16 | 02/19 | 09:00 | 36 | 17 | 47 | 29.87 | W | 8 | 0.00 |
| 17 | 02/19 | 08:00 | 33 | 15 | 49 | 29.87 | SW | 5 | 0.00 |
| 18 | 02/19 | 07:00 | 32 | 16 | 53 | 29.88 | WNW | 9 | 0.00 |
| 19 | 02/19 | 06:00 | 34 | 20 | 58 | 29.86 | SSW | 7 | 0.00 |
| 20 | 02/19 | 05:00 | 35 | 24 | 65 | 29.83 | SW | 11 | 0.00 |
| 21 | 02/19 | 04:00 | 36 | 26 | 69 | 29.81 | SSW | 10 | 0.00 |
| 22 | 02/19 | 03:00 | 33 | 25 | 74 | 29.79 | SSW | 4 | 0.00 |
| 23 | 02/19 | 02:00 | 34 | 25 | 70 | 29.78 | WSW | 2 | 0.00 |
| 24 | 02/19 | 01:00 | 35 | 25 | 69 | 29.78 | W | 8 | 0.00 |